KQA2508 FKKD-GLRB
Flight info
| Callsign | KQA2508 |
|---|---|
| Flight time | N/A |
| Altitude | 36000 |
| Route | ERPIS1B ERPIS DCT LIREX UY57 SESIG UR979 AD UB600 RITAM RITAM1B |
| Aircraft | B738/M-SDE2E3FGHIRWXY/LB1 |
Departure
| Time | 2026-04-25 16:46 |
|---|---|
| Airport | Douala International Airport (FKKD) |
Arrival
| Time | N/A |
|---|---|
| Airport | Roberts International Airport (GLRB) |
| Time | Latitude | Longitude | Altitude | Speed | Heading |
|---|---|---|---|---|---|
| 2026-04-25 16:34 | 4.01086 | 9.71976 | 32 ft | 0 kts | 27° |
| 2026-04-25 16:38 | 4.01082 | 9.71974 | 32 ft | 2 kts | 25° |
| 2026-04-25 16:38 | 4.01067 | 9.71967 | 33 ft | 2 kts | 25° |
| 2026-04-25 16:38 | 4.01053 | 9.71960 | 33 ft | 2 kts | 19° |
| 2026-04-25 16:39 | 4.01037 | 9.71956 | 31 ft | 2 kts | 4° |
| 2026-04-25 16:39 | 4.01021 | 9.71957 | 33 ft | 2 kts | 348° |
| 2026-04-25 16:39 | 4.01008 | 9.71965 | 30 ft | 2 kts | 293° |
| 2026-04-25 16:39 | 4.01005 | 9.71972 | 32 ft | 0 kts | 290° |
| 2026-04-25 16:41 | 4.01062 | 9.71838 | 33 ft | 19 kts | 280° |
| 2026-04-25 16:42 | 4.00986 | 9.71750 | 33 ft | 17 kts | 205° |
| 2026-04-25 16:42 | 4.00889 | 9.71699 | 32 ft | 14 kts | 208° |
| 2026-04-25 16:42 | 4.00835 | 9.71670 | 37 ft | 11 kts | 208° |
| 2026-04-25 16:42 | 4.00771 | 9.71661 | 38 ft | 9 kts | 158° |
| 2026-04-25 16:43 | 4.00729 | 9.71722 | 37 ft | 14 kts | 117° |
| 2026-04-25 16:43 | 4.00660 | 9.71860 | 37 ft | 28 kts | 116° |
| 2026-04-25 16:43 | 4.00568 | 9.72046 | 34 ft | 30 kts | 116° |
| 2026-04-25 16:43 | 4.00474 | 9.72228 | 34 ft | 28 kts | 117° |
| 2026-04-25 16:44 | 4.00388 | 9.72398 | 32 ft | 27 kts | 116° |
| 2026-04-25 16:44 | 4.00308 | 9.72558 | 33 ft | 25 kts | 121° |
| 2026-04-25 16:44 | 4.00233 | 9.72708 | 33 ft | 23 kts | 116° |
| 2026-04-25 16:44 | 4.00162 | 9.72849 | 33 ft | 22 kts | 117° |
| 2026-04-25 16:45 | 4.00092 | 9.72987 | 32 ft | 22 kts | 116° |
| 2026-04-25 16:45 | 4.00066 | 9.73096 | 29 ft | 11 kts | 153° |
| 2026-04-25 16:45 | 4.00048 | 9.73055 | 32 ft | 9 kts | 310° |
| 2026-04-25 16:45 | 4.00084 | 9.73002 | 33 ft | 12 kts | 296° |
| 2026-04-25 16:46 | 4.00225 | 9.72722 | 33 ft | 80 kts | 296° |
| 2026-04-25 16:46 | 4.00572 | 9.72032 | 36 ft | 140 kts | 296° |
| 2026-04-25 16:46 | 4.01082 | 9.71056 | 306 ft | 166 kts | 299° |
| 2026-04-25 16:46 | 4.01446 | 9.70378 | 747 ft | 170 kts | 296° |
| 2026-04-25 16:47 | 4.02180 | 9.68947 | 1683 ft | 174 kts | 294° |
| 2026-04-25 16:47 | 4.02741 | 9.67808 | 2114 ft | 197 kts | 294° |
| 2026-04-25 16:47 | 4.03384 | 9.66515 | 2319 ft | 221 kts | 294° |
| 2026-04-25 16:47 | 4.04104 | 9.65079 | 2549 ft | 239 kts | 293° |
| 2026-04-25 16:48 | 4.04481 | 9.63452 | 2871 ft | 249 kts | 266° |
| 2026-04-25 16:48 | 4.04090 | 9.61721 | 3249 ft | 261 kts | 250° |
| 2026-04-25 16:48 | 4.03475 | 9.59990 | 3955 ft | 263 kts | 248° |
| 2026-04-25 16:48 | 4.02838 | 9.58249 | 4663 ft | 269 kts | 248° |
| 2026-04-25 16:49 | 4.02192 | 9.56487 | 5372 ft | 273 kts | 249° |
| 2026-04-25 16:49 | 4.01535 | 9.54687 | 6046 ft | 277 kts | 249° |
| 2026-04-25 16:49 | 4.00872 | 9.52859 | 6691 ft | 282 kts | 250° |
| 2026-04-25 16:49 | 4.00200 | 9.51001 | 7309 ft | 287 kts | 250° |
| 2026-04-25 16:50 | 3.99518 | 9.49110 | 7940 ft | 291 kts | 249° |
| 2026-04-25 16:50 | 3.98824 | 9.47180 | 8521 ft | 297 kts | 250° |
| 2026-04-25 16:50 | 3.98122 | 9.45228 | 9227 ft | 299 kts | 249° |
| 2026-04-25 16:50 | 3.97413 | 9.43252 | 9857 ft | 303 kts | 250° |
| 2026-04-25 16:51 | 3.96689 | 9.41233 | 10230 ft | 318 kts | 249° |
| 2026-04-25 16:51 | 3.95916 | 9.39080 | 10388 ft | 338 kts | 250° |
| 2026-04-25 16:51 | 3.95106 | 9.36821 | 10718 ft | 350 kts | 249° |
| 2026-04-25 16:51 | 3.94559 | 9.35295 | 11078 ft | 352 kts | 250° |
| 2026-04-25 16:52 | 3.93448 | 9.32196 | 11920 ft | 355 kts | 249° |
| 2026-04-25 16:52 | 3.92611 | 9.29860 | 12520 ft | 358 kts | 249° |
| 2026-04-25 16:52 | 3.91766 | 9.27502 | 13141 ft | 361 kts | 249° |
| 2026-04-25 16:52 | 3.90912 | 9.25122 | 13756 ft | 364 kts | 249° |
| 2026-04-25 16:53 | 3.89188 | 9.20314 | 14879 ft | 370 kts | 249° |
| 2026-04-25 16:53 | 3.88315 | 9.17878 | 15421 ft | 374 kts | 249° |
| 2026-04-25 16:53 | 3.87431 | 9.15416 | 15991 ft | 377 kts | 249° |
| 2026-04-25 16:54 | 3.86543 | 9.12938 | 16552 ft | 379 kts | 250° |
| 2026-04-25 16:54 | 3.85648 | 9.10445 | 17094 ft | 383 kts | 250° |
| 2026-04-25 16:54 | 3.84879 | 9.07885 | 17602 ft | 387 kts | 262° |
| 2026-04-25 16:54 | 3.84940 | 9.05198 | 18185 ft | 387 kts | 277° |
| 2026-04-25 16:55 | 3.85292 | 9.02524 | 18656 ft | 389 kts | 278° |
| 2026-04-25 16:55 | 3.85674 | 8.99830 | 19088 ft | 393 kts | 278° |
| 2026-04-25 16:55 | 3.86064 | 8.97112 | 19505 ft | 396 kts | 278° |
| 2026-04-25 16:55 | 3.86452 | 8.94369 | 19937 ft | 399 kts | 278° |
| 2026-04-25 16:56 | 3.86836 | 8.91606 | 20379 ft | 402 kts | 277° |
| 2026-04-25 16:56 | 3.87216 | 8.88824 | 20794 ft | 405 kts | 277° |
| 2026-04-25 16:56 | 3.87594 | 8.86027 | 21245 ft | 407 kts | 277° |
| 2026-04-25 16:56 | 3.87970 | 8.83214 | 21664 ft | 409 kts | 277° |
| 2026-04-25 16:57 | 3.88348 | 8.80380 | 22071 ft | 412 kts | 277° |
| 2026-04-25 16:57 | 3.88599 | 8.78494 | 22328 ft | 414 kts | 277° |
| 2026-04-25 16:57 | 3.89108 | 8.74655 | 22848 ft | 417 kts | 277° |
| 2026-04-25 16:57 | 3.89492 | 8.71765 | 23232 ft | 420 kts | 277° |
| 2026-04-25 16:58 | 3.89877 | 8.68857 | 23565 ft | 423 kts | 277° |
| 2026-04-25 16:58 | 3.90265 | 8.65930 | 23871 ft | 425 kts | 277° |
| 2026-04-25 16:58 | 3.90656 | 8.62984 | 24197 ft | 427 kts | 277° |
| 2026-04-25 16:58 | 3.91048 | 8.60028 | 24506 ft | 429 kts | 277° |
| 2026-04-25 16:59 | 3.91442 | 8.57057 | 24812 ft | 432 kts | 277° |
| 2026-04-25 16:59 | 3.91837 | 8.54072 | 25110 ft | 434 kts | 277° |
| 2026-04-25 16:59 | 3.92235 | 8.51071 | 25415 ft | 436 kts | 277° |
| 2026-04-25 16:59 | 3.92635 | 8.48051 | 25705 ft | 438 kts | 277° |
| 2026-04-25 17:00 | 3.93036 | 8.45018 | 25995 ft | 440 kts | 277° |
| 2026-04-25 17:00 | 3.93440 | 8.41969 | 26262 ft | 443 kts | 277° |
| 2026-04-25 17:00 | 3.93845 | 8.38906 | 26559 ft | 445 kts | 277° |
| 2026-04-25 17:00 | 3.94247 | 8.35869 | 26847 ft | 447 kts | 277° |
| 2026-04-25 17:01 | 3.94656 | 8.32780 | 27137 ft | 448 kts | 277° |
| 2026-04-25 17:01 | 3.95065 | 8.29683 | 27419 ft | 450 kts | 277° |
| 2026-04-25 17:01 | 3.95478 | 8.26558 | 27634 ft | 454 kts | 277° |
| 2026-04-25 17:01 | 3.95894 | 8.23414 | 27858 ft | 457 kts | 277° |
| 2026-04-25 17:02 | 3.96310 | 8.20265 | 28220 ft | 456 kts | 277° |
| 2026-04-25 17:02 | 3.96727 | 8.17107 | 28470 ft | 458 kts | 277° |
| 2026-04-25 17:02 | 3.97145 | 8.13938 | 28715 ft | 460 kts | 277° |
| 2026-04-25 17:02 | 3.97423 | 8.11830 | 28834 ft | 463 kts | 277° |
| 2026-04-25 17:03 | 3.97988 | 8.07548 | 29161 ft | 465 kts | 277° |
| 2026-04-25 17:03 | 3.98413 | 8.04330 | 29430 ft | 466 kts | 277° |
| 2026-04-25 17:03 | 3.98837 | 8.01110 | 29683 ft | 467 kts | 277° |
| 2026-04-25 17:03 | 3.99263 | 7.97878 | 29911 ft | 469 kts | 277° |
| 2026-04-25 17:04 | 3.99691 | 7.94637 | 30166 ft | 469 kts | 277° |
| 2026-04-25 17:04 | 4.00116 | 7.91405 | 30473 ft | 468 kts | 277° |
| 2026-04-25 17:04 | 4.00543 | 7.88165 | 30626 ft | 470 kts | 277° |
| 2026-04-25 17:04 | 4.00971 | 7.84910 | 30777 ft | 472 kts | 277° |
| 2026-04-25 17:05 | 4.01401 | 7.81648 | 31010 ft | 473 kts | 277° |
| 2026-04-25 17:05 | 4.02255 | 7.75151 | 31406 ft | 474 kts | 277° |
| 2026-04-25 17:05 | 4.02685 | 7.71880 | 31670 ft | 473 kts | 277° |
| 2026-04-25 17:06 | 4.03114 | 7.68620 | 31972 ft | 472 kts | 277° |
| 2026-04-25 17:06 | 4.03542 | 7.65366 | 32267 ft | 470 kts | 277° |
| 2026-04-25 17:06 | 4.03968 | 7.62119 | 32510 ft | 470 kts | 277° |
| 2026-04-25 17:06 | 4.04395 | 7.58872 | 32725 ft | 471 kts | 277° |
| 2026-04-25 17:07 | 4.04823 | 7.55612 | 32862 ft | 474 kts | 277° |
| 2026-04-25 17:07 | 4.05252 | 7.52337 | 33076 ft | 474 kts | 277° |
| 2026-04-25 17:07 | 4.05681 | 7.49073 | 33402 ft | 472 kts | 277° |
| 2026-04-25 17:07 | 4.06108 | 7.45814 | 33667 ft | 471 kts | 277° |
| 2026-04-25 17:08 | 4.06535 | 7.42556 | 33866 ft | 472 kts | 277° |
| 2026-04-25 17:08 | 4.06962 | 7.39299 | 34141 ft | 470 kts | 277° |
| 2026-04-25 17:08 | 4.07387 | 7.36056 | 34412 ft | 469 kts | 277° |
| 2026-04-25 17:08 | 4.07809 | 7.32833 | 34684 ft | 467 kts | 277° |
| 2026-04-25 17:09 | 4.08232 | 7.29603 | 34856 ft | 468 kts | 277° |
| 2026-04-25 17:09 | 4.08656 | 7.26364 | 35005 ft | 469 kts | 277° |
| 2026-04-25 17:09 | 4.09080 | 7.23125 | 35286 ft | 467 kts | 277° |
| 2026-04-25 17:09 | 4.09501 | 7.19910 | 35546 ft | 465 kts | 277° |
| 2026-04-25 17:10 | 4.09920 | 7.16705 | 35804 ft | 464 kts | 277° |
| 2026-04-25 17:10 | 4.10339 | 7.13498 | 35953 ft | 465 kts | 277° |
| 2026-04-25 17:10 | 4.10760 | 7.10277 | 36057 ft | 467 kts | 277° |
| 2026-04-25 17:10 | 4.11179 | 7.07069 | 36386 ft | 463 kts | 277° |
| 2026-04-25 17:11 | 4.11596 | 7.03880 | 36686 ft | 460 kts | 277° |
| 2026-04-25 17:11 | 4.12011 | 7.00704 | 36871 ft | 460 kts | 277° |
| 2026-04-25 17:11 | 4.12425 | 6.97532 | 37081 ft | 459 kts | 277° |
| 2026-04-25 17:11 | 4.12839 | 6.94356 | 37179 ft | 461 kts | 277° |
| 2026-04-25 17:12 | 4.13256 | 6.91164 | 37319 ft | 462 kts | 277° |
| 2026-04-25 17:12 | 4.13671 | 6.87981 | 37537 ft | 460 kts | 277° |
| 2026-04-25 17:12 | 4.14083 | 6.84816 | 37796 ft | 457 kts | 277° |
| 2026-04-25 17:12 | 4.14494 | 6.81666 | 37827 ft | 455 kts | 277° |
| 2026-04-25 17:13 | 4.15035 | 6.77511 | 37882 ft | 455 kts | 277° |
| 2026-04-25 17:13 | 4.16133 | 6.69082 | 37886 ft | 462 kts | 277° |
| 2026-04-25 17:14 | 4.16966 | 6.62674 | 37881 ft | 465 kts | 277° |
| 2026-04-25 17:14 | 4.17805 | 6.56226 | 37884 ft | 468 kts | 277° |
| 2026-04-25 17:15 | 4.18644 | 6.49764 | 37876 ft | 466 kts | 277° |
| 2026-04-25 17:15 | 4.19474 | 6.43378 | 37879 ft | 460 kts | 277° |
| 2026-04-25 17:16 | 4.20296 | 6.37045 | 37879 ft | 457 kts | 277° |
| 2026-04-25 17:16 | 4.21112 | 6.30745 | 37883 ft | 455 kts | 277° |
| 2026-04-25 17:17 | 4.21927 | 6.24458 | 37883 ft | 455 kts | 277° |
| 2026-04-25 17:17 | 4.22743 | 6.18159 | 37886 ft | 457 kts | 277° |
| 2026-04-25 17:18 | 4.23561 | 6.11838 | 37888 ft | 459 kts | 277° |
| 2026-04-25 17:18 | 4.24382 | 6.05488 | 37885 ft | 461 kts | 277° |
| 2026-04-25 17:19 | 4.25208 | 5.99101 | 37890 ft | 463 kts | 277° |
| 2026-04-25 17:19 | 4.26037 | 5.92683 | 37889 ft | 466 kts | 277° |
| 2026-04-25 17:20 | 4.26864 | 5.86278 | 37891 ft | 468 kts | 277° |
| 2026-04-25 17:20 | 4.27699 | 5.79808 | 37885 ft | 469 kts | 277° |
| 2026-04-25 17:21 | 4.28535 | 5.73322 | 37883 ft | 469 kts | 277° |
| 2026-04-25 17:21 | 4.29370 | 5.66839 | 37881 ft | 469 kts | 277° |
| 2026-04-25 17:22 | 4.29928 | 5.62505 | 37884 ft | 469 kts | 277° |
| 2026-04-25 17:22 | 4.31035 | 5.53899 | 37882 ft | 467 kts | 277° |
| 2026-04-25 17:23 | 4.31865 | 5.47449 | 37885 ft | 466 kts | 277° |
| 2026-04-25 17:23 | 4.32692 | 5.41012 | 37886 ft | 465 kts | 277° |
| 2026-04-25 17:24 | 4.33516 | 5.34590 | 37888 ft | 464 kts | 277° |
| 2026-04-25 17:24 | 4.34338 | 5.28183 | 37888 ft | 463 kts | 277° |
| 2026-04-25 17:25 | 4.35159 | 5.21782 | 37889 ft | 463 kts | 277° |
| 2026-04-25 17:25 | 4.35979 | 5.15386 | 37894 ft | 462 kts | 277° |
| 2026-04-25 17:26 | 4.36797 | 5.08996 | 37892 ft | 462 kts | 277° |
| 2026-04-25 17:26 | 4.37614 | 5.02609 | 37886 ft | 463 kts | 277° |
| 2026-04-25 17:27 | 4.38432 | 4.96212 | 37889 ft | 463 kts | 277° |
| 2026-04-25 17:27 | 4.38973 | 4.91979 | 37903 ft | 463 kts | 277° |
| 2026-04-25 17:28 | 4.40062 | 4.83450 | 37887 ft | 464 kts | 277° |
| 2026-04-25 17:28 | 4.40880 | 4.77043 | 37894 ft | 464 kts | 277° |
| 2026-04-25 17:29 | 4.41697 | 4.70629 | 37886 ft | 464 kts | 277° |
| 2026-04-25 17:29 | 4.42515 | 4.64211 | 37891 ft | 464 kts | 277° |
| 2026-04-25 17:30 | 4.43332 | 4.57794 | 37886 ft | 464 kts | 277° |
| 2026-04-25 17:30 | 4.44049 | 4.51362 | 37885 ft | 464 kts | 274° |
| 2026-04-25 17:31 | 4.44438 | 4.45995 | 37892 ft | 464 kts | 274° |
| 2026-04-25 17:31 | 4.44937 | 4.38448 | 37892 ft | 465 kts | 274° |
| 2026-04-25 17:32 | 4.45312 | 4.33078 | 37890 ft | 465 kts | 274° |
| 2026-04-25 17:32 | 4.45782 | 4.26621 | 37887 ft | 465 kts | 274° |
| 2026-04-25 17:33 | 4.46258 | 4.20158 | 37898 ft | 465 kts | 274° |
| 2026-04-25 17:33 | 4.46734 | 4.13698 | 37893 ft | 465 kts | 274° |
| 2026-04-25 17:34 | 4.47208 | 4.07236 | 37894 ft | 465 kts | 274° |
| 2026-04-25 17:34 | 4.47681 | 4.00776 | 37895 ft | 465 kts | 274° |
| 2026-04-25 17:35 | 4.48153 | 3.94315 | 37886 ft | 465 kts | 274° |
| 2026-04-25 17:35 | 4.48625 | 3.87856 | 37886 ft | 465 kts | 274° |
| 2026-04-25 17:36 | 4.49096 | 3.81391 | 37891 ft | 465 kts | 274° |
| 2026-04-25 17:36 | 4.49567 | 3.74926 | 37885 ft | 465 kts | 274° |
| 2026-04-25 17:37 | 4.50037 | 3.68463 | 37889 ft | 465 kts | 274° |
| 2026-04-25 17:37 | 4.50508 | 3.61992 | 37894 ft | 465 kts | 274° |
| 2026-04-25 17:38 | 4.50898 | 3.56617 | 37884 ft | 466 kts | 274° |
| 2026-04-25 17:38 | 4.51446 | 3.49051 | 37882 ft | 466 kts | 274° |
| 2026-04-25 17:39 | 4.51915 | 3.42579 | 37897 ft | 466 kts | 274° |
| 2026-04-25 17:39 | 4.52383 | 3.36101 | 37888 ft | 466 kts | 274° |
| 2026-04-25 17:40 | 4.52851 | 3.29624 | 37895 ft | 466 kts | 274° |
| 2026-04-25 17:40 | 4.53318 | 3.23146 | 37885 ft | 466 kts | 274° |
| 2026-04-25 17:41 | 4.53785 | 3.16661 | 37885 ft | 466 kts | 274° |
| 2026-04-25 17:41 | 4.54248 | 3.10227 | 37888 ft | 466 kts | 274° |
| 2026-04-25 17:42 | 4.54717 | 3.03705 | 37885 ft | 466 kts | 274° |
| 2026-04-25 17:42 | 4.55182 | 2.97224 | 37890 ft | 466 kts | 274° |
| 2026-04-25 17:43 | 4.55647 | 2.90744 | 37882 ft | 466 kts | 274° |
| 2026-04-25 17:43 | 4.56114 | 2.84265 | 37884 ft | 466 kts | 274° |
| 2026-04-25 17:44 | 4.56588 | 2.77780 | 37881 ft | 466 kts | 274° |
| 2026-04-25 17:44 | 4.57062 | 2.71294 | 37883 ft | 466 kts | 274° |
| 2026-04-25 17:45 | 4.57453 | 2.65911 | 37889 ft | 466 kts | 274° |
| 2026-04-25 17:45 | 4.58003 | 2.58333 | 37889 ft | 466 kts | 274° |
| 2026-04-25 17:46 | 4.58468 | 2.51856 | 37890 ft | 466 kts | 274° |
| 2026-04-25 17:46 | 4.58924 | 2.45381 | 37884 ft | 466 kts | 274° |
| 2026-04-25 17:47 | 4.59377 | 2.38955 | 37898 ft | 465 kts | 274° |
| 2026-04-25 17:47 | 4.59833 | 2.32483 | 37883 ft | 465 kts | 274° |
| 2026-04-25 17:48 | 4.60516 | 2.22784 | 37880 ft | 465 kts | 274° |
| 2026-04-25 17:49 | 4.60971 | 2.16313 | 37889 ft | 465 kts | 274° |
| 2026-04-25 17:49 | 4.61426 | 2.09846 | 37884 ft | 465 kts | 274° |
| 2026-04-25 17:50 | 4.61880 | 2.03371 | 37888 ft | 466 kts | 274° |
| 2026-04-25 17:50 | 4.62334 | 1.96894 | 37883 ft | 466 kts | 274° |
| 2026-04-25 17:51 | 4.62787 | 1.90410 | 37881 ft | 467 kts | 274° |
| 2026-04-25 17:51 | 4.63241 | 1.83921 | 37882 ft | 467 kts | 274° |
| 2026-04-25 17:52 | 4.63694 | 1.77428 | 37889 ft | 467 kts | 274° |
| 2026-04-25 17:52 | 4.64147 | 1.70929 | 37882 ft | 467 kts | 274° |
| 2026-04-25 17:53 | 4.64600 | 1.64426 | 37886 ft | 468 kts | 274° |
| 2026-04-25 17:53 | 4.65053 | 1.57923 | 37879 ft | 468 kts | 274° |
| 2026-04-25 17:54 | 4.65505 | 1.51422 | 37886 ft | 467 kts | 275° |
| 2026-04-25 17:54 | 4.65955 | 1.44924 | 37878 ft | 467 kts | 275° |
| 2026-04-25 17:55 | 4.66405 | 1.38434 | 37879 ft | 466 kts | 275° |
| 2026-04-25 17:55 | 4.66854 | 1.31954 | 37879 ft | 465 kts | 275° |
| 2026-04-25 17:56 | 4.67301 | 1.25487 | 37882 ft | 464 kts | 275° |
| 2026-04-25 17:56 | 4.67747 | 1.19035 | 37875 ft | 464 kts | 275° |
| 2026-04-25 17:57 | 4.68192 | 1.12602 | 37885 ft | 463 kts | 275° |
| 2026-04-25 17:57 | 4.68638 | 1.06168 | 37876 ft | 462 kts | 275° |
| 2026-04-25 17:58 | 4.69083 | 0.99732 | 37875 ft | 462 kts | 275° |
| 2026-04-25 17:58 | 4.69523 | 0.93343 | 37887 ft | 462 kts | 275° |
| 2026-04-25 17:59 | 4.69966 | 0.86921 | 37879 ft | 462 kts | 275° |
| 2026-04-25 17:59 | 4.70411 | 0.80457 | 37883 ft | 462 kts | 275° |
| 2026-04-25 18:00 | 4.70849 | 0.74077 | 37885 ft | 463 kts | 275° |
| 2026-04-25 18:00 | 4.71294 | 0.67595 | 37894 ft | 463 kts | 275° |
| 2026-04-25 18:01 | 4.71735 | 0.61156 | 37885 ft | 464 kts | 275° |
| 2026-04-25 18:01 | 4.72174 | 0.54738 | 37887 ft | 465 kts | 275° |
| 2026-04-25 18:02 | 4.72616 | 0.48266 | 37886 ft | 466 kts | 275° |
| 2026-04-25 18:02 | 4.73062 | 0.41737 | 37877 ft | 467 kts | 275° |
| 2026-04-25 18:03 | 4.73501 | 0.35292 | 37870 ft | 467 kts | 275° |
| 2026-04-25 18:03 | 4.73942 | 0.28752 | 37884 ft | 468 kts | 275° |
| 2026-04-25 18:04 | 4.74375 | 0.22280 | 37886 ft | 468 kts | 275° |
| 2026-04-25 18:04 | 4.74810 | 0.15774 | 37882 ft | 468 kts | 275° |
| 2026-04-25 18:05 | 4.75245 | 0.09267 | 37868 ft | 467 kts | 275° |
| 2026-04-25 18:05 | 4.75679 | 0.02773 | 37874 ft | 467 kts | 275° |
| 2026-04-25 18:06 | 4.76112 | -0.03725 | 37872 ft | 466 kts | 275° |
| 2026-04-25 18:06 | 4.76544 | -0.10202 | 37873 ft | 466 kts | 275° |
| 2026-04-25 18:07 | 4.76974 | -0.16674 | 37874 ft | 465 kts | 275° |
| 2026-04-25 18:07 | 4.77403 | -0.23135 | 37874 ft | 464 kts | 275° |
| 2026-04-25 18:08 | 4.77831 | -0.29582 | 37883 ft | 463 kts | 275° |
| 2026-04-25 18:08 | 4.78257 | -0.36013 | 37873 ft | 463 kts | 275° |
| 2026-04-25 18:09 | 4.78682 | -0.42447 | 37875 ft | 462 kts | 275° |
| 2026-04-25 18:09 | 4.79106 | -0.48876 | 37875 ft | 462 kts | 275° |
| 2026-04-25 18:10 | 4.79531 | -0.55307 | 37880 ft | 462 kts | 275° |
| 2026-04-25 18:10 | 4.79954 | -0.61732 | 37882 ft | 462 kts | 275° |
| 2026-04-25 18:11 | 4.80376 | -0.68158 | 37869 ft | 462 kts | 275° |
| 2026-04-25 18:11 | 4.80799 | -0.74592 | 37875 ft | 463 kts | 275° |
| 2026-04-25 18:12 | 4.81220 | -0.81027 | 37867 ft | 463 kts | 275° |
| 2026-04-25 18:12 | 4.81644 | -0.87476 | 37871 ft | 464 kts | 275° |
| 2026-04-25 18:13 | 4.82078 | -0.93923 | 37874 ft | 464 kts | 275° |
| 2026-04-25 18:13 | 4.82511 | -1.00375 | 37876 ft | 464 kts | 275° |
| 2026-04-25 18:14 | 4.83161 | -1.10016 | 37862 ft | 464 kts | 275° |
| 2026-04-25 18:14 | 4.83599 | -1.16476 | 37863 ft | 464 kts | 275° |
| 2026-04-25 18:15 | 4.84035 | -1.22927 | 37850 ft | 464 kts | 275° |
| 2026-04-25 18:15 | 4.84399 | -1.28317 | 37856 ft | 463 kts | 275° |
| 2026-04-25 18:16 | 4.84899 | -1.35814 | 37853 ft | 463 kts | 275° |
| 2026-04-25 18:17 | 4.85458 | -1.44436 | 37850 ft | 462 kts | 275° |
| 2026-04-25 18:17 | 4.85875 | -1.50862 | 37855 ft | 462 kts | 275° |
| 2026-04-25 18:18 | 4.86291 | -1.57283 | 37844 ft | 461 kts | 275° |
| 2026-04-25 18:18 | 4.86707 | -1.63692 | 37823 ft | 461 kts | 275° |
| 2026-04-25 18:19 | 4.87122 | -1.70106 | 37829 ft | 460 kts | 275° |
| 2026-04-25 18:19 | 4.87536 | -1.76503 | 37833 ft | 459 kts | 275° |
| 2026-04-25 18:20 | 4.87948 | -1.82888 | 37837 ft | 459 kts | 275° |
| 2026-04-25 18:20 | 4.88359 | -1.89264 | 37838 ft | 458 kts | 275° |
| 2026-04-25 18:21 | 4.88770 | -1.95644 | 37845 ft | 458 kts | 275° |
| 2026-04-25 18:21 | 4.89179 | -2.02008 | 37854 ft | 458 kts | 275° |
| 2026-04-25 18:22 | 4.89588 | -2.08386 | 37841 ft | 458 kts | 275° |
| 2026-04-25 18:22 | 4.89985 | -2.14582 | 37846 ft | 459 kts | 275° |
| 2026-04-25 18:23 | 4.90391 | -2.20927 | 37849 ft | 459 kts | 275° |
| 2026-04-25 18:23 | 4.90802 | -2.27358 | 37847 ft | 459 kts | 275° |
| 2026-04-25 18:24 | 4.91211 | -2.33759 | 37838 ft | 460 kts | 275° |
| 2026-04-25 18:24 | 4.91619 | -2.40166 | 37850 ft | 461 kts | 275° |
| 2026-04-25 18:25 | 4.92027 | -2.46582 | 37865 ft | 462 kts | 275° |
| 2026-04-25 18:25 | 4.92435 | -2.53013 | 37850 ft | 463 kts | 275° |
| 2026-04-25 18:26 | 4.92844 | -2.59458 | 37851 ft | 463 kts | 275° |
| 2026-04-25 18:26 | 4.93253 | -2.65913 | 37850 ft | 464 kts | 275° |
| 2026-04-25 18:27 | 4.93661 | -2.72367 | 37852 ft | 464 kts | 275° |
| 2026-04-25 18:27 | 4.94069 | -2.78832 | 37856 ft | 464 kts | 275° |
| 2026-04-25 18:28 | 4.94476 | -2.85292 | 37858 ft | 464 kts | 275° |
| 2026-04-25 18:28 | 4.95108 | -2.91722 | 37867 ft | 462 kts | 281° |
| 2026-04-25 18:29 | 4.96965 | -3.01155 | 37852 ft | 461 kts | 282° |
| 2026-04-25 18:30 | 4.99545 | -3.13768 | 37857 ft | 459 kts | 282° |
| 2026-04-25 18:30 | 5.00799 | -3.19989 | 37855 ft | 457 kts | 282° |
| 2026-04-25 18:31 | 5.02053 | -3.26235 | 37848 ft | 456 kts | 282° |
| 2026-04-25 18:31 | 5.03304 | -3.32467 | 37850 ft | 455 kts | 282° |
| 2026-04-25 18:32 | 5.04552 | -3.38685 | 37846 ft | 454 kts | 282° |
| 2026-04-25 18:32 | 5.05799 | -3.44898 | 37846 ft | 454 kts | 282° |
| 2026-04-25 18:33 | 5.07044 | -3.51106 | 37853 ft | 454 kts | 282° |
| 2026-04-25 18:33 | 5.08289 | -3.57317 | 37847 ft | 455 kts | 282° |
| 2026-04-25 18:34 | 5.09536 | -3.63544 | 37855 ft | 456 kts | 282° |
| 2026-04-25 18:34 | 5.10785 | -3.69780 | 37845 ft | 457 kts | 282° |
| 2026-04-25 18:35 | 5.12036 | -3.76031 | 37840 ft | 458 kts | 282° |
| 2026-04-25 18:35 | 5.13289 | -3.82294 | 37828 ft | 459 kts | 282° |
| 2026-04-25 18:36 | 5.14543 | -3.88571 | 37836 ft | 459 kts | 282° |
| 2026-04-25 18:36 | 5.15798 | -3.94851 | 37867 ft | 459 kts | 282° |
| 2026-04-25 18:37 | 5.17045 | -4.01094 | 37850 ft | 459 kts | 282° |
| 2026-04-25 18:37 | 5.18299 | -4.07378 | 37846 ft | 459 kts | 282° |
| 2026-04-25 18:38 | 5.19551 | -4.13656 | 37843 ft | 459 kts | 282° |
| 2026-04-25 18:38 | 5.20802 | -4.19929 | 37836 ft | 458 kts | 282° |
| 2026-04-25 18:39 | 5.22050 | -4.26195 | 37834 ft | 457 kts | 282° |
| 2026-04-25 18:39 | 5.23296 | -4.32449 | 37832 ft | 457 kts | 282° |
| 2026-04-25 18:40 | 5.24538 | -4.38689 | 37838 ft | 456 kts | 282° |
| 2026-04-25 18:40 | 5.25788 | -4.44972 | 37828 ft | 456 kts | 282° |
| 2026-04-25 18:41 | 5.27027 | -4.51200 | 37834 ft | 455 kts | 282° |
| 2026-04-25 18:41 | 5.28265 | -4.57429 | 37838 ft | 455 kts | 282° |
| 2026-04-25 18:42 | 5.29084 | -4.61553 | 37845 ft | 455 kts | 282° |
| 2026-04-25 18:42 | 5.30736 | -4.69876 | 37837 ft | 455 kts | 282° |
| 2026-04-25 18:43 | 5.31962 | -4.76051 | 37855 ft | 454 kts | 282° |
| 2026-04-25 18:43 | 5.33200 | -4.82294 | 37829 ft | 453 kts | 282° |
| 2026-04-25 18:44 | 5.34426 | -4.88481 | 37839 ft | 451 kts | 282° |
| 2026-04-25 18:44 | 5.35639 | -4.94608 | 37842 ft | 450 kts | 282° |
| 2026-04-25 18:45 | 5.36866 | -5.00803 | 37846 ft | 449 kts | 282° |
| 2026-04-25 18:45 | 5.38077 | -5.06924 | 37845 ft | 450 kts | 282° |
| 2026-04-25 18:46 | 5.39299 | -5.13103 | 37847 ft | 452 kts | 282° |
| 2026-04-25 18:46 | 5.40525 | -5.19304 | 37844 ft | 454 kts | 282° |
| 2026-04-25 18:47 | 5.41758 | -5.25544 | 37857 ft | 457 kts | 282° |
| 2026-04-25 18:47 | 5.42994 | -5.31808 | 37843 ft | 459 kts | 282° |
| 2026-04-25 18:48 | 5.44234 | -5.38092 | 37855 ft | 460 kts | 282° |
| 2026-04-25 18:48 | 5.45477 | -5.44391 | 37842 ft | 460 kts | 282° |
| 2026-04-25 18:49 | 5.46717 | -5.50683 | 37841 ft | 459 kts | 282° |
| 2026-04-25 18:49 | 5.47954 | -5.56965 | 37842 ft | 458 kts | 282° |
| 2026-04-25 18:50 | 5.49185 | -5.63221 | 37846 ft | 456 kts | 282° |
| 2026-04-25 18:50 | 5.50413 | -5.69457 | 37846 ft | 455 kts | 282° |
| 2026-04-25 18:51 | 5.51222 | -5.73576 | 37851 ft | 453 kts | 282° |
| 2026-04-25 18:51 | 5.52850 | -5.81857 | 37839 ft | 451 kts | 282° |
| 2026-04-25 18:52 | 5.54060 | -5.88017 | 37838 ft | 449 kts | 282° |
| 2026-04-25 18:52 | 5.55265 | -5.94152 | 37850 ft | 447 kts | 282° |
| 2026-04-25 18:53 | 5.56466 | -6.00274 | 37843 ft | 446 kts | 282° |
| 2026-04-25 18:53 | 5.57665 | -6.06386 | 37843 ft | 446 kts | 282° |
| 2026-04-25 18:54 | 5.59463 | -6.15561 | 37851 ft | 447 kts | 281° |
| 2026-04-25 18:55 | 5.60664 | -6.21697 | 37850 ft | 449 kts | 282° |
| 2026-04-25 18:55 | 5.61873 | -6.27873 | 37852 ft | 452 kts | 282° |
| 2026-04-25 18:56 | 5.63087 | -6.34077 | 37848 ft | 454 kts | 282° |
| 2026-04-25 18:56 | 5.64305 | -6.40311 | 37851 ft | 456 kts | 282° |
| 2026-04-25 18:57 | 5.65529 | -6.46576 | 37844 ft | 458 kts | 281° |
| 2026-04-25 18:57 | 5.66755 | -6.52855 | 37848 ft | 459 kts | 281° |
| 2026-04-25 18:58 | 5.67976 | -6.59114 | 37849 ft | 461 kts | 281° |
| 2026-04-25 18:58 | 5.69833 | -6.68639 | 37852 ft | 462 kts | 281° |
| 2026-04-25 18:59 | 5.72089 | -6.80222 | 37836 ft | 461 kts | 281° |
| 2026-04-25 19:00 | 5.73924 | -6.89651 | 37831 ft | 452 kts | 281° |
| 2026-04-25 19:01 | 5.75712 | -6.98847 | 37846 ft | 447 kts | 280° |
| 2026-04-25 19:01 | 5.76901 | -7.04966 | 37853 ft | 446 kts | 280° |
| 2026-04-25 19:02 | 5.78682 | -7.14144 | 37850 ft | 447 kts | 281° |
| 2026-04-25 19:03 | 5.80272 | -7.22341 | 37836 ft | 448 kts | 280° |